createdAt,value
2017-11-01T00:00:01.071Z,6.30
2017-11-01T00:02:29.771Z,6.40
2017-11-01T00:04:57.523Z,6.30
2017-11-01T00:07:24.999Z,6.40
2017-11-01T00:09:53.394Z,6.50
2017-11-01T00:12:20.834Z,6.50
2017-11-01T00:14:48.314Z,6.40
2017-11-01T00:17:16.470Z,6.30
2017-11-01T00:19:44.732Z,6.40
2017-11-01T00:22:12.936Z,6.30
2017-11-01T00:24:40.405Z,6.40
2017-11-01T00:27:15.399Z,6.40
2017-11-01T00:29:43.338Z,6.40
2017-11-01T00:32:10.922Z,6.40
2017-11-01T00:34:38.378Z,6.40
2017-11-01T00:37:05.827Z,6.40
2017-11-01T00:39:33.311Z,6.30
2017-11-01T00:42:01.568Z,6.30
2017-11-01T00:44:29.133Z,6.30
2017-11-01T00:46:57.511Z,6.30
2017-11-01T00:49:25.000Z,6.30
2017-11-01T00:51:52.449Z,6.20
2017-11-01T00:54:20.409Z,6.10
2017-11-01T00:56:48.057Z,6.10
2017-11-01T00:59:16.349Z,6.10
2017-11-01T01:01:43.966Z,6.10
2017-11-01T01:04:11.466Z,6.10
2017-11-01T01:06:39.161Z,6.10
2017-11-01T01:09:06.676Z,6.10
2017-11-01T01:11:35.845Z,6.20
2017-11-01T01:14:03.305Z,6.20
2017-11-01T01:16:30.814Z,6.20
2017-11-01T01:18:58.264Z,6.10
2017-11-01T01:21:26.719Z,6.10
2017-11-01T01:23:55.359Z,6.00
2017-11-01T01:26:22.837Z,6.00
2017-11-01T01:28:50.291Z,6.10
2017-11-01T01:31:17.870Z,6.00
2017-11-01T01:33:45.326Z,6.10
2017-11-01T01:36:13.704Z,6.00
2017-11-01T01:38:41.179Z,6.00
2017-11-01T01:41:08.654Z,6.10
2017-11-01T01:43:39.803Z,6.10
2017-11-01T01:46:07.534Z,6.20
2017-11-01T01:48:35.044Z,6.10
2017-11-01T01:51:03.174Z,6.10
2017-11-01T01:53:30.832Z,6.10
2017-11-01T01:55:59.119Z,6.20
2017-11-01T01:58:28.485Z,6.20
2017-11-01T02:00:56.181Z,6.20
2017-11-01T02:03:24.245Z,6.20
2017-11-01T02:05:53.395Z,6.30
2017-11-01T02:08:21.007Z,6.30
2017-11-01T02:10:48.542Z,6.40
2017-11-01T02:13:15.989Z,6.40
2017-11-01T02:15:43.442Z,6.50
2017-11-01T02:18:10.906Z,6.40
2017-11-01T02:20:38.358Z,6.40
2017-11-01T02:23:07.361Z,6.40
2017-11-01T02:25:37.301Z,6.40
2017-11-01T02:28:05.875Z,6.40
2017-11-01T02:30:47.555Z,6.40
2017-11-01T02:33:15.035Z,6.40
2017-11-01T02:35:42.483Z,6.40
2017-11-01T02:38:11.508Z,6.40
2017-11-01T02:40:38.961Z,6.40
2017-11-01T02:43:06.435Z,6.40
2017-11-01T02:45:34.135Z,6.40
2017-11-01T02:48:01.596Z,6.40
2017-11-01T02:50:29.379Z,6.30
2017-11-01T02:52:58.311Z,6.30
2017-11-01T02:55:25.806Z,6.30
2017-11-01T02:57:53.267Z,6.30
2017-11-01T03:00:20.723Z,6.30
2017-11-01T03:02:48.234Z,6.30
2017-11-01T03:05:17.135Z,6.30
2017-11-01T03:07:44.599Z,6.30
2017-11-01T03:10:12.979Z,6.30
2017-11-01T03:12:41.363Z,6.30
2017-11-01T03:15:12.919Z,6.40
2017-11-01T03:20:14.198Z,6.50
2017-11-01T03:22:42.470Z,6.50
2017-11-01T03:25:09.964Z,6.60
2017-11-01T03:27:37.555Z,6.60
2017-11-01T03:30:05.044Z,6.50
2017-11-01T03:32:32.647Z,6.50
2017-11-01T03:35:00.116Z,6.50
2017-11-01T03:37:27.590Z,6.50
2017-11-01T03:39:55.987Z,6.50
2017-11-01T03:42:23.459Z,6.60
2017-11-01T03:44:50.945Z,6.60
2017-11-01T03:47:19.167Z,6.70
2017-11-01T03:49:46.675Z,6.60
2017-11-01T03:52:14.278Z,6.70
2017-11-01T03:54:41.794Z,6.70
2017-11-01T03:57:09.893Z,6.70
2017-11-01T03:59:37.393Z,6.70
2017-11-01T04:02:04.889Z,6.60
2017-11-01T04:04:33.172Z,6.60
2017-11-01T04:07:01.406Z,6.60
2017-11-01T04:09:28.895Z,6.60
2017-11-01T04:11:57.188Z,6.50
2017-11-01T04:14:24.683Z,6.50
2017-11-01T04:16:53.063Z,6.50
2017-11-01T04:19:23.306Z,6.50
2017-11-01T04:21:50.794Z,6.50
2017-11-01T04:24:19.012Z,6.60
2017-11-01T04:26:46.469Z,6.60
2017-11-01T04:29:13.943Z,6.70
2017-11-01T04:31:41.397Z,6.70
2017-11-01T04:34:08.890Z,6.80
2017-11-01T04:37:01.963Z,6.70
2017-11-01T04:40:09.323Z,6.70
2017-11-01T04:42:36.818Z,6.80
2017-11-01T04:45:04.263Z,6.70
2017-11-01T04:47:35.419Z,6.70
2017-11-01T04:50:02.899Z,6.70
2017-11-01T04:52:35.266Z,6.70
2017-11-01T04:55:03.169Z,6.70
2017-11-01T04:57:30.731Z,6.70
2017-11-01T05:00:03.180Z,6.60
2017-11-01T05:02:35.672Z,6.60
2017-11-01T05:05:08.906Z,6.60
2017-11-01T05:07:37.180Z,6.70
2017-11-01T05:10:04.939Z,6.70
2017-11-01T05:12:38.267Z,6.80
2017-11-01T05:15:05.743Z,6.80
2017-11-01T05:17:33.206Z,6.80
2017-11-01T05:20:00.647Z,6.80
2017-11-01T05:22:28.127Z,6.80
2017-11-01T05:24:59.541Z,6.80
2017-11-01T05:27:29.463Z,6.70
2017-11-01T05:29:57.292Z,6.80
2017-11-01T05:32:24.938Z,6.70
2017-11-01T05:34:52.402Z,6.70
2017-11-01T05:37:19.879Z,6.70
2017-11-01T05:39:47.347Z,6.80
2017-11-01T05:42:15.243Z,6.80
2017-11-01T05:44:42.710Z,6.80
2017-11-01T05:47:10.162Z,6.80
2017-11-01T05:49:38.428Z,6.90
2017-11-01T05:52:05.883Z,6.90
2017-11-01T05:54:33.349Z,6.90
2017-11-01T05:57:00.799Z,6.90
2017-11-01T05:59:28.287Z,6.90
2017-11-01T06:01:55.775Z,6.80
2017-11-01T06:04:27.097Z,6.80
2017-11-01T06:06:54.538Z,6.80
2017-11-01T06:09:22.380Z,6.80
2017-11-01T06:11:49.850Z,6.90
2017-11-01T06:14:18.034Z,6.90
2017-11-01T06:16:45.615Z,6.90
2017-11-01T06:19:13.059Z,6.90
2017-11-01T06:21:42.055Z,7.00
2017-11-01T06:24:09.543Z,7.00
2017-11-01T06:26:36.999Z,7.00
2017-11-01T06:29:04.485Z,7.00
2017-11-01T06:31:31.952Z,7.00
2017-11-01T06:33:59.412Z,7.00
2017-11-01T06:36:26.896Z,6.90
2017-11-01T06:38:56.098Z,7.00
2017-11-01T06:41:23.574Z,7.00
2017-11-01T06:43:51.811Z,7.10
2017-11-01T06:46:20.119Z,7.10
2017-11-01T06:48:47.583Z,7.20
2017-11-01T06:51:15.146Z,7.20
2017-11-01T06:53:42.687Z,7.20
2017-11-01T06:56:10.208Z,7.20
2017-11-01T06:58:37.687Z,7.20
2017-11-01T07:01:05.268Z,7.20
2017-11-01T07:03:33.658Z,7.20
2017-11-01T07:06:03.637Z,7.30
2017-11-01T07:08:31.128Z,7.30
2017-11-01T07:10:58.587Z,7.30
2017-11-01T07:13:26.355Z,7.30
2017-11-01T07:15:53.833Z,7.30
2017-11-01T07:18:22.083Z,7.40
2017-11-01T07:20:49.537Z,7.40
2017-11-01T07:23:17.458Z,7.50
2017-11-01T07:25:44.935Z,7.50
2017-11-01T07:28:12.595Z,7.60
2017-11-01T07:30:40.052Z,7.70
2017-11-01T07:33:07.541Z,7.70
2017-11-01T07:35:35.107Z,7.70
2017-11-01T07:38:03.373Z,7.80
2017-11-01T07:40:30.851Z,7.70
2017-11-01T07:42:58.359Z,7.80
2017-11-01T07:45:25.844Z,7.90
2017-11-01T07:47:53.358Z,7.90
2017-11-01T07:50:20.838Z,8.00
2017-11-01T07:52:48.316Z,8.00
2017-11-01T07:55:15.803Z,8.00
2017-11-01T07:57:43.341Z,8.10
2017-11-01T08:00:10.992Z,8.30
2017-11-01T08:02:39.164Z,8.40
2017-11-01T08:05:06.622Z,8.50
2017-11-01T08:07:34.114Z,8.70
2017-11-01T08:10:02.100Z,8.80
2017-11-01T08:12:30.653Z,8.80
2017-11-01T08:14:58.905Z,8.80
2017-11-01T08:17:26.386Z,8.80
2017-11-01T08:19:53.842Z,8.80
2017-11-01T08:22:23.030Z,8.90
2017-11-01T08:24:50.529Z,8.90
2017-11-01T08:27:18.084Z,8.90
2017-11-01T08:29:45.680Z,9.00
2017-11-01T08:32:13.140Z,9.20
2017-11-01T08:34:40.632Z,9.30
2017-11-01T08:37:08.865Z,9.50
2017-11-01T08:39:36.487Z,9.40
2017-11-01T08:42:03.971Z,9.40
2017-11-01T08:44:31.774Z,9.50
2017-11-01T08:46:59.251Z,9.50
2017-11-01T08:49:26.780Z,9.50
2017-11-01T08:51:54.238Z,9.50
2017-11-01T08:54:21.701Z,9.50
2017-11-01T08:56:50.106Z,9.70
2017-11-01T08:59:17.700Z,10.00
2017-11-01T09:01:45.918Z,10.40
2017-11-01T09:04:13.417Z,10.40
2017-11-01T09:06:40.911Z,10.60
2017-11-01T09:09:10.114Z,10.90
2017-11-01T09:11:37.664Z,10.90
2017-11-01T09:14:05.121Z,11.00
2017-11-01T09:16:34.179Z,11.10
2017-11-01T09:19:01.659Z,11.30
2017-11-01T09:21:33.237Z,11.30
2017-11-01T09:24:00.921Z,11.20
2017-11-01T09:26:29.896Z,11.10
2017-11-01T09:28:57.613Z,10.90
2017-11-01T09:31:25.065Z,10.80
2017-11-01T09:33:52.603Z,10.80
2017-11-01T09:36:24.626Z,10.70
2017-11-01T09:38:52.140Z,10.70
2017-11-01T09:41:19.591Z,10.80
2017-11-01T09:43:47.039Z,10.80
2017-11-01T09:46:14.646Z,10.80
2017-11-01T09:48:42.153Z,10.80
2017-11-01T09:51:09.650Z,10.70
2017-11-01T09:53:37.805Z,10.60
2017-11-01T09:56:05.317Z,10.60
2017-11-01T09:58:32.836Z,10.80
2017-11-01T10:01:00.292Z,10.90
2017-11-01T10:03:27.790Z,11.10
2017-11-01T10:05:55.298Z,11.30
2017-11-01T10:08:22.756Z,11.30
2017-11-01T10:10:51.948Z,11.50
2017-11-01T10:13:19.419Z,11.40
2017-11-01T10:15:46.959Z,11.60
2017-11-01T10:18:14.472Z,11.70
2017-11-01T10:20:41.940Z,11.70
2017-11-01T10:23:10.322Z,11.70
2017-11-01T10:25:38.240Z,11.60
2017-11-01T10:28:05.693Z,11.70
2017-11-01T10:30:35.065Z,11.80
2017-11-01T10:33:02.583Z,11.80
2017-11-01T10:35:30.067Z,11.90
2017-11-01T10:38:05.106Z,12.20
2017-11-01T10:40:33.087Z,12.30
2017-11-01T10:43:00.536Z,12.50
2017-11-01T10:45:28.807Z,12.80
2017-11-01T10:47:56.263Z,12.80
2017-11-01T10:50:24.030Z,13.00
2017-11-01T10:52:51.479Z,13.10
2017-11-01T10:55:19.564Z,13.10
2017-11-01T10:57:47.027Z,13.10
2017-11-01T11:00:14.518Z,13.20
2017-11-01T11:02:42.132Z,13.30
2017-11-01T11:05:09.583Z,13.20
2017-11-01T11:07:37.054Z,13.30
2017-11-01T11:10:04.507Z,13.30
2017-11-01T11:12:31.982Z,13.30
2017-11-01T11:14:59.438Z,13.40
2017-11-01T11:17:27.864Z,13.50
2017-11-01T11:19:55.335Z,13.20
2017-11-01T11:22:22.931Z,13.00
2017-11-01T11:24:53.946Z,12.90
2017-11-01T11:27:22.328Z,12.90
2017-11-01T11:29:49.817Z,12.90
2017-11-01T11:32:17.422Z,12.80
2017-11-01T11:34:44.902Z,12.70
2017-11-01T11:37:12.399Z,12.80
2017-11-01T11:39:39.915Z,12.70
2017-11-01T11:42:07.440Z,12.70
2017-11-01T11:44:35.887Z,12.60
2017-11-01T11:47:04.130Z,12.50
2017-11-01T11:49:31.671Z,12.50
2017-11-01T11:51:59.180Z,12.40
2017-11-01T11:54:26.637Z,12.40
2017-11-01T11:56:55.487Z,12.70
2017-11-01T11:59:22.973Z,12.70
2017-11-01T12:01:51.215Z,12.90
2017-11-01T12:04:19.621Z,12.90
2017-11-01T12:06:47.118Z,12.90
2017-11-01T12:09:14.587Z,13.00
2017-11-01T12:11:42.043Z,13.10
2017-11-01T12:14:09.840Z,13.30
2017-11-01T12:16:37.478Z,13.40
2017-11-01T12:19:04.963Z,13.50
2017-11-01T12:21:33.193Z,13.40
2017-11-01T12:24:00.900Z,13.30
2017-11-01T12:26:28.670Z,13.10
2017-11-01T12:28:56.150Z,13.00
2017-11-01T12:31:23.608Z,12.90
2017-11-01T12:33:51.079Z,12.80
2017-11-01T12:36:18.571Z,12.60
2017-11-01T12:38:47.174Z,12.50
2017-11-01T12:41:14.647Z,12.40
2017-11-01T12:43:42.265Z,12.40
2017-11-01T12:46:09.858Z,12.40
2017-11-01T12:48:37.314Z,12.40
2017-11-01T12:51:04.824Z,12.30
2017-11-01T12:53:32.373Z,12.30
2017-11-01T12:56:00.315Z,12.30
2017-11-01T12:58:27.812Z,12.40
2017-11-01T13:00:55.270Z,12.50
2017-11-01T13:03:22.772Z,12.50
2017-11-01T13:05:50.367Z,12.40
2017-11-01T13:08:17.882Z,12.30
2017-11-01T13:10:52.977Z,12.30
2017-11-01T13:13:20.466Z,12.20
2017-11-01T13:15:48.147Z,12.20
2017-11-01T13:18:15.699Z,12.10
2017-11-01T13:20:43.187Z,12.10
2017-11-01T13:23:10.787Z,12.10
2017-11-01T13:25:39.259Z,12.20
2017-11-01T13:28:06.755Z,12.20
2017-11-01T13:30:34.207Z,12.20
2017-11-01T13:33:04.130Z,12.20
2017-11-01T13:35:31.624Z,12.20
2017-11-01T13:37:59.263Z,12.20
2017-11-01T13:40:31.204Z,12.20
2017-11-01T13:42:59.762Z,12.20
2017-11-01T13:45:27.286Z,12.20
2017-11-01T13:47:54.747Z,12.20
2017-11-01T13:50:22.237Z,12.20
2017-11-01T13:52:49.704Z,12.20
2017-11-01T13:55:18.157Z,12.10
2017-11-01T13:57:45.700Z,12.00
2017-11-01T14:00:13.190Z,12.00
2017-11-01T14:02:40.696Z,12.00
2017-11-01T14:05:08.146Z,11.90
2017-11-01T14:07:35.594Z,11.90
2017-11-01T14:10:03.367Z,11.90
2017-11-01T14:12:41.573Z,11.90
2017-11-01T14:15:09.231Z,11.80
2017-11-01T14:17:37.355Z,11.80
2017-11-01T14:20:05.022Z,11.80
2017-11-01T14:22:32.502Z,11.90
2017-11-01T14:24:59.963Z,11.90
2017-11-01T14:27:30.924Z,11.90
2017-11-01T14:29:58.378Z,11.80
2017-11-01T14:32:28.299Z,11.70
2017-11-01T14:34:55.815Z,11.70
2017-11-01T14:37:23.414Z,11.70
2017-11-01T14:39:50.892Z,11.60
2017-11-01T14:42:18.352Z,11.60
2017-11-01T14:44:47.478Z,11.60
2017-11-01T14:47:15.028Z,11.60
2017-11-01T14:49:42.491Z,11.60
2017-11-01T14:52:10.918Z,11.60
2017-11-01T14:54:39.282Z,11.60
2017-11-01T14:57:06.751Z,11.60
2017-11-01T14:59:34.223Z,11.60
2017-11-01T15:02:01.717Z,11.50
2017-11-01T15:04:29.226Z,11.50
2017-11-01T15:06:56.682Z,11.40
2017-11-01T15:09:24.931Z,11.40
2017-11-01T15:11:52.390Z,11.40
2017-11-01T15:14:19.983Z,11.40
2017-11-01T15:16:47.757Z,11.30
2017-11-01T15:19:15.228Z,11.30
2017-11-01T15:21:43.637Z,11.20
2017-11-01T15:24:11.092Z,11.10
2017-11-01T15:26:38.668Z,11.10
2017-11-01T15:29:06.147Z,11.00
2017-11-01T15:31:33.707Z,10.90
2017-11-01T15:34:01.156Z,10.90
2017-11-01T15:36:28.641Z,10.80
2017-11-01T15:38:56.099Z,10.70
2017-11-01T15:41:23.558Z,10.50
2017-11-01T15:43:51.051Z,10.30
2017-11-01T15:46:19.431Z,10.10
2017-11-01T15:48:47.141Z,9.90
2017-11-01T15:51:14.646Z,9.80
2017-11-01T15:53:42.108Z,9.60
2017-11-01T15:56:09.802Z,9.50
2017-11-01T15:58:37.285Z,9.50
2017-11-01T16:01:06.155Z,9.30
2017-11-01T16:03:33.677Z,9.30
2017-11-01T16:06:01.150Z,9.20
2017-11-01T16:08:28.691Z,9.10
2017-11-01T16:10:56.355Z,8.90
2017-11-01T16:13:27.767Z,8.80
2017-11-01T16:15:55.255Z,8.70
2017-11-01T16:18:22.774Z,8.70
2017-11-01T16:20:51.300Z,8.60
2017-11-01T16:23:20.634Z,8.60
2017-11-01T16:25:49.780Z,8.60
2017-11-01T16:28:22.162Z,8.60
2017-11-01T16:30:50.169Z,8.50
2017-11-01T16:33:17.673Z,8.40
2017-11-01T16:35:45.162Z,8.30
2017-11-01T16:38:12.626Z,8.30
2017-11-01T16:40:40.478Z,8.30
2017-11-01T16:43:07.936Z,8.30
2017-11-01T16:45:35.407Z,8.20
2017-11-01T16:48:02.993Z,8.10
2017-11-01T16:50:30.606Z,8.10
2017-11-01T16:52:58.995Z,8.00
2017-11-01T16:55:26.523Z,8.10
2017-11-01T16:57:53.972Z,8.00
2017-11-01T17:00:21.434Z,7.90
2017-11-01T17:02:48.954Z,7.90
2017-11-01T17:05:16.404Z,7.80
2017-11-01T17:07:43.879Z,7.80
2017-11-01T17:10:11.990Z,7.90
2017-11-01T17:12:39.556Z,7.90
2017-11-01T17:15:11.354Z,7.80
2017-11-01T17:17:38.885Z,7.80
2017-11-01T17:20:06.928Z,7.60
2017-11-01T17:22:34.417Z,7.50
2017-11-01T17:25:01.932Z,7.50
2017-11-01T17:27:29.686Z,7.50
2017-11-01T17:30:04.302Z,7.40
2017-11-01T17:32:32.071Z,7.40
2017-11-01T17:34:59.526Z,7.30
2017-11-01T17:37:27.795Z,7.30
2017-11-01T17:39:55.291Z,7.30
2017-11-01T17:42:22.800Z,7.20
2017-11-01T17:44:50.287Z,7.10
2017-11-01T17:47:18.567Z,7.10
2017-11-01T17:49:46.030Z,7.10
2017-11-01T17:52:13.602Z,7.10
2017-11-01T17:54:41.090Z,7.10
2017-11-01T17:57:08.558Z,7.20
2017-11-01T17:59:40.614Z,7.10
2017-11-01T18:02:08.122Z,7.00
2017-11-01T18:04:35.655Z,7.00
2017-11-01T18:07:03.469Z,6.90
2017-11-01T18:09:30.959Z,6.80
2017-11-01T18:11:58.555Z,6.80
2017-11-01T18:14:26.022Z,6.80
2017-11-01T18:16:55.053Z,6.80
2017-11-01T18:19:22.517Z,6.80
2017-11-01T18:21:50.011Z,6.80
2017-11-01T18:24:17.483Z,6.80
2017-11-01T18:26:46.131Z,6.80
2017-11-01T18:29:13.642Z,6.90
2017-11-01T18:31:41.083Z,7.00
2017-11-01T18:34:08.846Z,7.00
2017-11-01T18:36:36.291Z,7.10
2017-11-01T18:39:04.393Z,7.10
2017-11-01T18:41:32.588Z,7.10
2017-11-01T18:44:00.199Z,7.00
2017-11-01T18:46:31.688Z,6.80
2017-11-01T18:48:59.139Z,6.80
2017-11-01T18:51:27.595Z,6.90
2017-11-01T18:53:55.890Z,6.70
2017-11-01T18:56:23.553Z,6.70
2017-11-01T18:58:51.020Z,6.60
2017-11-01T19:01:21.619Z,6.70
2017-11-01T19:03:49.268Z,6.60
2017-11-01T19:06:16.875Z,6.60
2017-11-01T19:08:44.375Z,6.40
2017-11-01T19:11:11.956Z,6.50
2017-11-01T19:13:39.448Z,6.60
2017-11-01T19:16:11.579Z,6.80
2017-11-01T19:18:39.580Z,6.70
2017-11-01T19:21:07.273Z,6.60
2017-11-01T19:23:35.142Z,6.50
2017-11-01T19:26:02.639Z,6.30
2017-11-01T19:28:30.314Z,6.20
2017-11-01T19:31:01.693Z,6.30
2017-11-01T19:33:29.189Z,6.30
2017-11-01T19:35:56.674Z,6.20
2017-11-01T19:38:24.219Z,6.30
2017-11-01T19:40:51.680Z,6.20
2017-11-01T19:43:19.142Z,6.20
2017-11-01T19:45:46.616Z,6.10
2017-11-01T19:48:17.714Z,6.00
2017-11-01T19:50:46.011Z,5.90
2017-11-01T19:53:14.400Z,5.90
2017-11-01T19:55:41.904Z,5.90
2017-11-01T19:58:10.050Z,5.90
2017-11-01T20:00:37.511Z,5.80
2017-11-01T20:03:08.860Z,5.80
2017-11-01T20:05:36.315Z,5.80
2017-11-01T20:08:04.510Z,5.70
2017-11-01T20:10:31.986Z,5.70
2017-11-01T20:12:59.493Z,5.70
2017-11-01T20:15:27.749Z,5.70
2017-11-01T20:17:55.204Z,5.70
2017-11-01T20:20:23.594Z,5.70
2017-11-01T20:22:51.062Z,5.60
2017-11-01T20:25:18.515Z,5.50
2017-11-01T20:27:46.775Z,5.40
2017-11-01T20:30:14.602Z,5.40
2017-11-01T20:32:46.104Z,5.50
2017-11-01T20:35:13.606Z,5.40
2017-11-01T20:37:41.199Z,5.50
2017-11-01T20:40:08.703Z,5.50
2017-11-01T20:42:36.215Z,5.50
2017-11-01T20:45:03.678Z,5.60
2017-11-01T20:47:32.243Z,5.60
2017-11-01T20:50:01.952Z,5.60
2017-11-01T20:52:29.409Z,5.60
2017-11-01T20:54:57.370Z,5.50
2017-11-01T20:57:24.815Z,5.60
2017-11-01T20:59:52.302Z,5.70
2017-11-01T21:02:19.771Z,5.70
2017-11-01T21:04:47.240Z,5.60
2017-11-01T21:07:15.389Z,5.50
2017-11-01T21:09:43.114Z,5.50
2017-11-01T21:12:10.579Z,5.60
2017-11-01T21:14:38.387Z,5.70
2017-11-01T21:17:06.487Z,5.70
2017-11-01T21:19:33.975Z,5.60
2017-11-01T21:22:01.595Z,5.60
2017-11-01T21:24:29.973Z,5.60
2017-11-01T21:26:57.461Z,5.60
2017-11-01T21:29:24.952Z,5.70
2017-11-01T21:31:52.735Z,5.80
2017-11-01T21:34:20.241Z,5.70
2017-11-01T21:36:47.674Z,5.60
2017-11-01T21:39:15.343Z,5.50
2017-11-01T21:41:43.439Z,5.40
2017-11-01T21:44:10.951Z,5.20
2017-11-01T21:46:38.421Z,5.20
2017-11-01T21:49:06.087Z,5.10
2017-11-01T21:51:33.551Z,5.10
2017-11-01T21:54:01.117Z,5.10
2017-11-01T21:56:28.775Z,5.10
2017-11-01T21:58:58.266Z,5.30
2017-11-01T22:01:27.432Z,5.30
2017-11-01T22:03:59.127Z,5.30
2017-11-01T22:06:26.624Z,5.30
2017-11-01T22:08:54.114Z,5.40
2017-11-01T22:11:22.392Z,5.30
2017-11-01T22:13:50.184Z,5.30
2017-11-01T22:16:17.707Z,5.20
2017-11-01T22:18:48.234Z,5.10
2017-11-01T22:21:16.341Z,5.00
2017-11-01T22:23:43.826Z,4.90
2017-11-01T22:26:12.455Z,4.80
2017-11-01T22:28:40.003Z,4.80
2017-11-01T22:31:07.484Z,4.90
2017-11-01T22:33:36.638Z,5.00
2017-11-01T22:36:04.131Z,4.90
2017-11-01T22:38:31.602Z,5.00
2017-11-01T22:40:59.145Z,5.00
2017-11-01T22:43:26.718Z,5.00
2017-11-01T22:45:54.209Z,4.90
2017-11-01T22:48:21.685Z,4.90
2017-11-01T22:50:50.875Z,4.80
2017-11-01T22:53:18.734Z,4.80
2017-11-01T22:55:46.217Z,4.80
2017-11-01T22:58:15.194Z,4.80
2017-11-01T23:00:43.261Z,4.80
2017-11-01T23:03:11.007Z,4.80
2017-11-01T23:05:44.395Z,4.80
2017-11-01T23:08:11.875Z,4.80
2017-11-01T23:10:39.823Z,4.90
2017-11-01T23:13:07.293Z,4.80
2017-11-01T23:15:34.782Z,4.80
2017-11-01T23:18:02.265Z,4.90
2017-11-01T23:20:29.725Z,4.90
2017-11-01T23:22:59.628Z,4.80
2017-11-01T23:25:27.096Z,4.80
2017-11-01T23:27:54.599Z,4.90
2017-11-01T23:30:22.091Z,4.90
2017-11-01T23:32:49.764Z,4.90
2017-11-01T23:35:21.839Z,4.80
2017-11-01T23:37:49.323Z,4.90
2017-11-01T23:40:16.805Z,4.90
2017-11-01T23:42:44.283Z,5.00
2017-11-01T23:45:11.771Z,4.90
2017-11-01T23:47:40.103Z,4.90
2017-11-01T23:50:07.636Z,4.90
2017-11-01T23:52:35.120Z,4.90
2017-11-01T23:55:02.662Z,4.90
2017-11-01T23:57:30.119Z,5.00
2017-11-01T23:59:57.623Z,5.00
